sensor_id;sensor_type;location;lat;lon;timestamp;temperature;humidity
4820;DHT22;2424;49.696;6.630;2023-03-26T00:05:08;7.70;99.90
4820;DHT22;2424;49.696;6.630;2023-03-26T00:10:34;7.70;99.90
4820;DHT22;2424;49.696;6.630;2023-03-26T00:15:56;7.70;99.90
4820;DHT22;2424;49.696;6.630;2023-03-26T00:21:22;7.80;99.90
4820;DHT22;2424;49.696;6.630;2023-03-26T00:26:47;7.80;99.90
4820;DHT22;2424;49.696;6.630;2023-03-26T00:32:12;7.80;99.90
4820;DHT22;2424;49.696;6.630;2023-03-26T00:37:36;7.90;99.90
4820;DHT22;2424;49.696;6.630;2023-03-26T00:42:58;7.90;99.90
4820;DHT22;2424;49.696;6.630;2023-03-26T00:48:22;7.90;99.90
4820;DHT22;2424;49.696;6.630;2023-03-26T00:53:46;7.90;99.90
4820;DHT22;2424;49.696;6.630;2023-03-26T00:59:08;7.90;99.90
4820;DHT22;2424;49.696;6.630;2023-03-26T01:04:32;7.90;99.90
4820;DHT22;2424;49.696;6.630;2023-03-26T01:09:57;7.90;99.90
4820;DHT22;2424;49.696;6.630;2023-03-26T01:15:20;7.90;99.90
4820;DHT22;2424;49.696;6.630;2023-03-26T01:20:43;7.90;99.90
4820;DHT22;2424;49.696;6.630;2023-03-26T01:26:20;7.80;99.90
4820;DHT22;2424;49.696;6.630;2023-03-26T01:31:50;7.80;99.90
4820;DHT22;2424;49.696;6.630;2023-03-26T01:37:19;7.80;99.90
4820;DHT22;2424;49.696;6.630;2023-03-26T01:42:45;7.80;99.90
4820;DHT22;2424;49.696;6.630;2023-03-26T01:48:08;7.80;99.90
4820;DHT22;2424;49.696;6.630;2023-03-26T01:53:31;7.80;99.90
4820;DHT22;2424;49.696;6.630;2023-03-26T01:59:03;7.80;99.90
4820;DHT22;2424;49.696;6.630;2023-03-26T02:04:33;7.80;99.90
4820;DHT22;2424;49.696;6.630;2023-03-26T02:09:59;7.80;99.90
4820;DHT22;2424;49.696;6.630;2023-03-26T02:15:26;7.80;99.90
4820;DHT22;2424;49.696;6.630;2023-03-26T02:20:48;7.80;99.90
4820;DHT22;2424;49.696;6.630;2023-03-26T02:26:14;7.80;99.90
4820;DHT22;2424;49.696;6.630;2023-03-26T02:31:37;7.80;99.90
4820;DHT22;2424;49.696;6.630;2023-03-26T02:36:59;7.80;99.90
4820;DHT22;2424;49.696;6.630;2023-03-26T02:42:21;7.80;99.90
4820;DHT22;2424;49.696;6.630;2023-03-26T02:47:45;7.80;99.90
4820;DHT22;2424;49.696;6.630;2023-03-26T02:53:07;7.80;99.90
4820;DHT22;2424;49.696;6.630;2023-03-26T02:58:28;7.80;99.90
4820;DHT22;2424;49.696;6.630;2023-03-26T03:03:52;7.80;99.90
4820;DHT22;2424;49.696;6.630;2023-03-26T03:09:14;7.80;99.90
4820;DHT22;2424;49.696;6.630;2023-03-26T03:14:36;7.90;99.90
4820;DHT22;2424;49.696;6.630;2023-03-26T03:19:59;7.90;99.90
4820;DHT22;2424;49.696;6.630;2023-03-26T03:25:21;7.90;99.90
4820;DHT22;2424;49.696;6.630;2023-03-26T03:30:45;7.80;99.90
4820;DHT22;2424;49.696;6.630;2023-03-26T03:36:10;7.80;99.90
4820;DHT22;2424;49.696;6.630;2023-03-26T03:41:32;7.80;99.90
4820;DHT22;2424;49.696;6.630;2023-03-26T03:46:54;7.80;99.90
4820;DHT22;2424;49.696;6.630;2023-03-26T03:52:18;7.80;99.90
4820;DHT22;2424;49.696;6.630;2023-03-26T03:57:39;7.80;99.90
4820;DHT22;2424;49.696;6.630;2023-03-26T04:03:01;7.80;99.90
4820;DHT22;2424;49.696;6.630;2023-03-26T04:08:27;7.80;99.90
4820;DHT22;2424;49.696;6.630;2023-03-26T04:13:49;7.80;99.90
4820;DHT22;2424;49.696;6.630;2023-03-26T04:19:11;7.80;99.90
4820;DHT22;2424;49.696;6.630;2023-03-26T04:24:35;7.80;99.90
4820;DHT22;2424;49.696;6.630;2023-03-26T04:29:58;7.80;99.90
4820;DHT22;2424;49.696;6.630;2023-03-26T04:35:21;7.70;99.90
4820;DHT22;2424;49.696;6.630;2023-03-26T04:40:44;7.60;99.90
4820;DHT22;2424;49.696;6.630;2023-03-26T04:46:07;7.60;99.90
4820;DHT22;2424;49.696;6.630;2023-03-26T04:51:35;7.60;99.90
4820;DHT22;2424;49.696;6.630;2023-03-26T04:57:02;7.60;99.90
4820;DHT22;2424;49.696;6.630;2023-03-26T05:02:25;7.60;99.90
4820;DHT22;2424;49.696;6.630;2023-03-26T05:07:48;7.60;99.90
4820;DHT22;2424;49.696;6.630;2023-03-26T05:13:11;7.60;99.90
4820;DHT22;2424;49.696;6.630;2023-03-26T05:18:33;7.60;99.90
4820;DHT22;2424;49.696;6.630;2023-03-26T05:23:55;7.50;99.90
4820;DHT22;2424;49.696;6.630;2023-03-26T05:29:18;7.50;99.90
4820;DHT22;2424;49.696;6.630;2023-03-26T05:34:41;7.50;99.90
4820;DHT22;2424;49.696;6.630;2023-03-26T05:40:05;7.40;99.90
4820;DHT22;2424;49.696;6.630;2023-03-26T05:45:32;7.40;99.90
4820;DHT22;2424;49.696;6.630;2023-03-26T05:50:55;7.30;99.90
4820;DHT22;2424;49.696;6.630;2023-03-26T05:56:17;7.40;99.90
4820;DHT22;2424;49.696;6.630;2023-03-26T06:01:41;7.30;99.90
4820;DHT22;2424;49.696;6.630;2023-03-26T06:07:04;7.40;99.90
4820;DHT22;2424;49.696;6.630;2023-03-26T06:12:29;7.40;99.90
4820;DHT22;2424;49.696;6.630;2023-03-26T06:17:53;7.40;99.90
4820;DHT22;2424;49.696;6.630;2023-03-26T06:23:14;7.40;99.90
4820;DHT22;2424;49.696;6.630;2023-03-26T06:28:36;7.40;99.90
4820;DHT22;2424;49.696;6.630;2023-03-26T06:34:00;7.30;99.90
4820;DHT22;2424;49.696;6.630;2023-03-26T06:39:22;7.40;99.90
4820;DHT22;2424;49.696;6.630;2023-03-26T06:44:43;7.30;99.90
4820;DHT22;2424;49.696;6.630;2023-03-26T06:50:08;7.30;99.90
4820;DHT22;2424;49.696;6.630;2023-03-26T06:55:31;7.30;99.90
4820;DHT22;2424;49.696;6.630;2023-03-26T07:00:53;7.30;99.90
4820;DHT22;2424;49.696;6.630;2023-03-26T07:06:16;7.20;99.90
4820;DHT22;2424;49.696;6.630;2023-03-26T07:11:38;7.10;99.90
4820;DHT22;2424;49.696;6.630;2023-03-26T07:17:00;6.90;99.90
4820;DHT22;2424;49.696;6.630;2023-03-26T07:22:24;7.00;99.90
4820;DHT22;2424;49.696;6.630;2023-03-26T07:27:56;7.00;99.90
4820;DHT22;2424;49.696;6.630;2023-03-26T07:33:24;7.00;99.90
4820;DHT22;2424;49.696;6.630;2023-03-26T07:39:03;7.10;99.90
4820;DHT22;2424;49.696;6.630;2023-03-26T07:44:44;7.30;99.90
4820;DHT22;2424;49.696;6.630;2023-03-26T07:50:14;7.50;99.90
4820;DHT22;2424;49.696;6.630;2023-03-26T07:55:46;7.60;99.90
4820;DHT22;2424;49.696;6.630;2023-03-26T08:01:15;7.80;99.90
4820;DHT22;2424;49.696;6.630;2023-03-26T08:06:38;7.80;99.90
4820;DHT22;2424;49.696;6.630;2023-03-26T08:12:11;7.90;99.90
4820;DHT22;2424;49.696;6.630;2023-03-26T08:17:39;8.00;99.90
4820;DHT22;2424;49.696;6.630;2023-03-26T08:23:07;8.10;99.90
4820;DHT22;2424;49.696;6.630;2023-03-26T08:28:45;8.20;99.90
4820;DHT22;2424;49.696;6.630;2023-03-26T08:34:12;8.40;99.90
4820;DHT22;2424;49.696;6.630;2023-03-26T08:39:35;8.50;99.90
4820;DHT22;2424;49.696;6.630;2023-03-26T08:45:21;8.80;99.90
4820;DHT22;2424;49.696;6.630;2023-03-26T08:57:00;8.80;99.90
4820;DHT22;2424;49.696;6.630;2023-03-26T09:02:53;8.80;99.90
4820;DHT22;2424;49.696;6.630;2023-03-26T09:26:23;8.80;99.90
4820;DHT22;2424;49.696;6.630;2023-03-26T09:32:12;8.90;99.90
4820;DHT22;2424;49.696;6.630;2023-03-26T09:37:48;8.90;99.90
4820;DHT22;2424;49.696;6.630;2023-03-26T09:43:50;9.00;99.90
4820;DHT22;2424;49.696;6.630;2023-03-26T09:49:35;8.80;99.90
4820;DHT22;2424;49.696;6.630;2023-03-26T09:55:28;9.00;99.90
4820;DHT22;2424;49.696;6.630;2023-03-26T10:00:58;9.30;99.90
4820;DHT22;2424;49.696;6.630;2023-03-26T10:06:38;9.40;99.90
4820;DHT22;2424;49.696;6.630;2023-03-26T10:12:13;9.40;99.90
4820;DHT22;2424;49.696;6.630;2023-03-26T10:17:49;9.40;99.90
4820;DHT22;2424;49.696;6.630;2023-03-26T10:23:32;9.50;99.90
4820;DHT22;2424;49.696;6.630;2023-03-26T10:29:22;9.40;99.90
4820;DHT22;2424;49.696;6.630;2023-03-26T10:34:57;9.40;99.90
4820;DHT22;2424;49.696;6.630;2023-03-26T10:40:28;9.50;99.90
4820;DHT22;2424;49.696;6.630;2023-03-26T10:46:03;9.50;99.90
4820;DHT22;2424;49.696;6.630;2023-03-26T10:51:44;9.50;99.90
4820;DHT22;2424;49.696;6.630;2023-03-26T10:57:21;9.60;99.90
4820;DHT22;2424;49.696;6.630;2023-03-26T11:08:35;9.80;99.90
4820;DHT22;2424;49.696;6.630;2023-03-26T11:14:03;9.90;99.90
4820;DHT22;2424;49.696;6.630;2023-03-26T11:19:30;10.00;99.90
4820;DHT22;2424;49.696;6.630;2023-03-26T11:25:07;9.90;99.90
4820;DHT22;2424;49.696;6.630;2023-03-26T11:30:40;9.70;99.90
4820;DHT22;2424;49.696;6.630;2023-03-26T11:36:07;9.70;99.90
4820;DHT22;2424;49.696;6.630;2023-03-26T11:41:31;9.40;99.90
4820;DHT22;2424;49.696;6.630;2023-03-26T11:46:57;9.50;99.90
4820;DHT22;2424;49.696;6.630;2023-03-26T11:52:21;9.60;99.90
4820;DHT22;2424;49.696;6.630;2023-03-26T11:57:48;9.70;99.90
4820;DHT22;2424;49.696;6.630;2023-03-26T12:03:14;10.10;99.90
4820;DHT22;2424;49.696;6.630;2023-03-26T12:08:38;10.00;99.90
4820;DHT22;2424;49.696;6.630;2023-03-26T12:14:04;10.10;99.90
4820;DHT22;2424;49.696;6.630;2023-03-26T12:19:26;10.40;99.90
4820;DHT22;2424;49.696;6.630;2023-03-26T12:25:14;10.20;99.90
4820;DHT22;2424;49.696;6.630;2023-03-26T12:30:39;10.00;99.90
4820;DHT22;2424;49.696;6.630;2023-03-26T12:36:18;9.70;99.90
4820;DHT22;2424;49.696;6.630;2023-03-26T12:41:41;9.70;99.90
4820;DHT22;2424;49.696;6.630;2023-03-26T12:47:15;9.90;99.90
4820;DHT22;2424;49.696;6.630;2023-03-26T12:52:51;10.10;99.90
4820;DHT22;2424;49.696;6.630;2023-03-26T12:58:40;10.00;99.90
4820;DHT22;2424;49.696;6.630;2023-03-26T13:04:27;10.70;99.90
4820;DHT22;2424;49.696;6.630;2023-03-26T13:10:12;11.20;99.90
4820;DHT22;2424;49.696;6.630;2023-03-26T13:15:43;11.00;99.90
4820;DHT22;2424;49.696;6.630;2023-03-26T13:21:11;11.10;99.90
4820;DHT22;2424;49.696;6.630;2023-03-26T13:26:52;10.90;99.90
4820;DHT22;2424;49.696;6.630;2023-03-26T13:32:25;10.80;99.90
4820;DHT22;2424;49.696;6.630;2023-03-26T13:37:57;11.00;99.90
4820;DHT22;2424;49.696;6.630;2023-03-26T13:43:44;11.40;99.90
4820;DHT22;2424;49.696;6.630;2023-03-26T13:49:12;11.20;99.90
4820;DHT22;2424;49.696;6.630;2023-03-26T13:54:40;10.90;99.90
4820;DHT22;2424;49.696;6.630;2023-03-26T14:00:09;10.80;99.90
4820;DHT22;2424;49.696;6.630;2023-03-26T14:05:38;10.70;99.90
4820;DHT22;2424;49.696;6.630;2023-03-26T14:11:08;10.00;99.90
4820;DHT22;2424;49.696;6.630;2023-03-26T14:16:37;9.80;99.90
4820;DHT22;2424;49.696;6.630;2023-03-26T14:22:12;9.80;99.90
4820;DHT22;2424;49.696;6.630;2023-03-26T14:27:55;9.90;99.90
4820;DHT22;2424;49.696;6.630;2023-03-26T14:33:54;9.20;99.90
4820;DHT22;2424;49.696;6.630;2023-03-26T14:39:47;8.60;99.90
4820;DHT22;2424;49.696;6.630;2023-03-26T14:45:47;8.60;99.90
4820;DHT22;2424;49.696;6.630;2023-03-26T14:51:22;8.60;99.90
4820;DHT22;2424;49.696;6.630;2023-03-26T15:03:26;8.60;99.90
4820;DHT22;2424;49.696;6.630;2023-03-26T15:15:41;9.20;99.90
4820;DHT22;2424;49.696;6.630;2023-03-26T15:27:22;8.90;99.90
4820;DHT22;2424;49.696;6.630;2023-03-26T15:39:20;8.60;99.90
4820;DHT22;2424;49.696;6.630;2023-03-26T15:44:53;8.50;99.90
4820;DHT22;2424;49.696;6.630;2023-03-26T15:50:27;8.60;99.90
4820;DHT22;2424;49.696;6.630;2023-03-26T15:56:01;8.70;99.90
4820;DHT22;2424;49.696;6.630;2023-03-26T16:01:45;8.60;99.90
4820;DHT22;2424;49.696;6.630;2023-03-26T16:13:29;8.50;99.90
4820;DHT22;2424;49.696;6.630;2023-03-26T16:18:56;8.40;99.90
4820;DHT22;2424;49.696;6.630;2023-03-26T16:24:31;8.60;99.90
4820;DHT22;2424;49.696;6.630;2023-03-26T16:30:14;8.40;99.90
4820;DHT22;2424;49.696;6.630;2023-03-26T16:35:50;8.30;99.90
4820;DHT22;2424;49.696;6.630;2023-03-26T16:41:16;8.20;99.90
4820;DHT22;2424;49.696;6.630;2023-03-26T16:46:51;8.10;99.90
4820;DHT22;2424;49.696;6.630;2023-03-26T16:58:18;8.10;99.90
4820;DHT22;2424;49.696;6.630;2023-03-26T17:03:54;8.00;99.90
4820;DHT22;2424;49.696;6.630;2023-03-26T17:09:24;7.90;99.90
4820;DHT22;2424;49.696;6.630;2023-03-26T17:14:58;7.90;99.90
4820;DHT22;2424;49.696;6.630;2023-03-26T17:20:31;7.90;99.90
4820;DHT22;2424;49.696;6.630;2023-03-26T17:26:02;7.90;99.90
4820;DHT22;2424;49.696;6.630;2023-03-26T17:31:34;7.80;99.90
4820;DHT22;2424;49.696;6.630;2023-03-26T17:37:00;7.80;99.90
4820;DHT22;2424;49.696;6.630;2023-03-26T17:42:26;7.70;99.90
4820;DHT22;2424;49.696;6.630;2023-03-26T17:47:52;7.70;99.90
4820;DHT22;2424;49.696;6.630;2023-03-26T17:53:19;7.70;99.90
4820;DHT22;2424;49.696;6.630;2023-03-26T17:58:46;7.60;99.90
4820;DHT22;2424;49.696;6.630;2023-03-26T18:04:15;7.60;99.90
4820;DHT22;2424;49.696;6.630;2023-03-26T18:09:51;7.60;99.90
4820;DHT22;2424;49.696;6.630;2023-03-26T18:15:29;7.60;99.90
4820;DHT22;2424;49.696;6.630;2023-03-26T18:20:53;7.50;99.90
4820;DHT22;2424;49.696;6.630;2023-03-26T18:26:20;7.50;99.90
4820;DHT22;2424;49.696;6.630;2023-03-26T18:31:43;7.50;99.90
4820;DHT22;2424;49.696;6.630;2023-03-26T18:37:16;7.50;99.90
4820;DHT22;2424;49.696;6.630;2023-03-26T18:42:43;7.40;99.90
4820;DHT22;2424;49.696;6.630;2023-03-26T18:48:11;7.40;99.90
4820;DHT22;2424;49.696;6.630;2023-03-26T18:53:39;7.30;99.90
4820;DHT22;2424;49.696;6.630;2023-03-26T18:59:24;7.30;99.90
4820;DHT22;2424;49.696;6.630;2023-03-26T19:04:48;7.40;99.90
4820;DHT22;2424;49.696;6.630;2023-03-26T19:10:15;7.40;99.90
4820;DHT22;2424;49.696;6.630;2023-03-26T19:15:43;7.30;99.90
4820;DHT22;2424;49.696;6.630;2023-03-26T19:21:06;7.30;99.90
4820;DHT22;2424;49.696;6.630;2023-03-26T19:26:29;7.30;99.90
4820;DHT22;2424;49.696;6.630;2023-03-26T19:32:00;7.30;99.90
4820;DHT22;2424;49.696;6.630;2023-03-26T19:37:24;7.30;99.90
4820;DHT22;2424;49.696;6.630;2023-03-26T19:42:48;7.20;99.90
4820;DHT22;2424;49.696;6.630;2023-03-26T19:48:15;7.20;99.90
4820;DHT22;2424;49.696;6.630;2023-03-26T19:53:42;7.20;99.90
4820;DHT22;2424;49.696;6.630;2023-03-26T19:59:06;7.20;99.90
4820;DHT22;2424;49.696;6.630;2023-03-26T20:04:32;7.10;99.90
4820;DHT22;2424;49.696;6.630;2023-03-26T20:09:54;7.20;99.90
4820;DHT22;2424;49.696;6.630;2023-03-26T20:15:20;7.10;99.90
4820;DHT22;2424;49.696;6.630;2023-03-26T20:20:44;7.20;99.90
4820;DHT22;2424;49.696;6.630;2023-03-26T20:26:10;7.20;99.90
4820;DHT22;2424;49.696;6.630;2023-03-26T20:31:33;7.20;99.90
4820;DHT22;2424;49.696;6.630;2023-03-26T20:36:56;7.20;99.90
4820;DHT22;2424;49.696;6.630;2023-03-26T20:42:18;7.30;99.90
4820;DHT22;2424;49.696;6.630;2023-03-26T20:47:40;7.30;99.90
4820;DHT22;2424;49.696;6.630;2023-03-26T20:53:03;7.30;99.90
4820;DHT22;2424;49.696;6.630;2023-03-26T20:58:26;7.30;99.90
4820;DHT22;2424;49.696;6.630;2023-03-26T21:03:48;7.30;99.90
4820;DHT22;2424;49.696;6.630;2023-03-26T21:09:14;7.30;99.90
4820;DHT22;2424;49.696;6.630;2023-03-26T21:14:38;7.30;99.90
4820;DHT22;2424;49.696;6.630;2023-03-26T21:20:01;7.30;99.90
4820;DHT22;2424;49.696;6.630;2023-03-26T21:25:37;7.20;99.90
4820;DHT22;2424;49.696;6.630;2023-03-26T21:31:01;7.30;99.90
4820;DHT22;2424;49.696;6.630;2023-03-26T21:36:24;7.20;99.90
4820;DHT22;2424;49.696;6.630;2023-03-26T21:41:49;7.20;99.90
4820;DHT22;2424;49.696;6.630;2023-03-26T21:47:12;7.20;99.90
4820;DHT22;2424;49.696;6.630;2023-03-26T21:52:35;7.20;99.90
4820;DHT22;2424;49.696;6.630;2023-03-26T21:58:24;7.10;99.90
4820;DHT22;2424;49.696;6.630;2023-03-26T22:03:56;7.20;99.90
4820;DHT22;2424;49.696;6.630;2023-03-26T22:09:21;7.10;99.90
4820;DHT22;2424;49.696;6.630;2023-03-26T22:14:45;7.10;99.90
4820;DHT22;2424;49.696;6.630;2023-03-26T22:20:07;7.00;99.90
4820;DHT22;2424;49.696;6.630;2023-03-26T22:25:32;7.00;99.90
4820;DHT22;2424;49.696;6.630;2023-03-26T22:30:55;6.90;99.90
4820;DHT22;2424;49.696;6.630;2023-03-26T22:36:17;6.90;99.90
4820;DHT22;2424;49.696;6.630;2023-03-26T22:41:39;6.80;99.90
4820;DHT22;2424;49.696;6.630;2023-03-26T22:47:03;6.80;99.90
4820;DHT22;2424;49.696;6.630;2023-03-26T22:52:24;6.80;99.90
4820;DHT22;2424;49.696;6.630;2023-03-26T22:57:46;6.60;99.90
4820;DHT22;2424;49.696;6.630;2023-03-26T23:03:10;6.70;99.90
4820;DHT22;2424;49.696;6.630;2023-03-26T23:08:34;6.60;99.90
4820;DHT22;2424;49.696;6.630;2023-03-26T23:13:57;6.50;99.90
4820;DHT22;2424;49.696;6.630;2023-03-26T23:19:20;6.50;99.90
4820;DHT22;2424;49.696;6.630;2023-03-26T23:24:42;6.50;99.90
4820;DHT22;2424;49.696;6.630;2023-03-26T23:30:05;6.40;99.90
4820;DHT22;2424;49.696;6.630;2023-03-26T23:35:31;6.30;99.90
4820;DHT22;2424;49.696;6.630;2023-03-26T23:40:54;6.30;99.90
4820;DHT22;2424;49.696;6.630;2023-03-26T23:46:16;6.30;99.90
4820;DHT22;2424;49.696;6.630;2023-03-26T23:51:42;6.20;99.90
4820;DHT22;2424;49.696;6.630;2023-03-26T23:57:04;6.10;99.90
